CYEV

Inuvik Mike Zubko Airport

Inuvik, Northwest Territories, Canada
METAR CYEV 210300Z 03006KT 15SM FEW250 M19/M25 A3016 RMK CI2 SLP224
Observed Flight Rules
Apr-21 @ 03:00 UTC (48 minutes ago) Visual Flight Rules
Wind Visibility Clouds
30° at 6 knots 15 miles
  • Few at 25,000' AGL
Temperatures Readings
Current -19°C / -2°F
Dewpoint -25°C / -13°F
Humidity 59%
Altimeter 30.16" Hg
Pressure 1022.4 hPa
Elevation 68
METAR CYEV 210300Z 03006KT 15SM FEW250 M19/M25 A3016 RMK CI2 SLP224
Observed Flight Rules
Apr-21 @ 03:00 UTC
(48 minutes ago)
VFR
Wind Visibility
30° at 6 knots 15 miles
Clouds
  • Few at 25,000' AGL
Temperature Dewpoint
-19°C / -2°F -25°C / -13°F
Humidity Altimeter Pressure
59% 30.16" Hg 1022.4 hPa